createdAt,value
2022-12-23T00:05:03.443Z,13.90
2022-12-23T00:07:53.553Z,13.10
2022-12-23T00:11:33.020Z,16.50
2022-12-23T00:15:03.829Z,12.10
2022-12-23T00:18:25.945Z,12.60
2022-12-23T00:21:35.561Z,11.70
2022-12-23T00:24:34.649Z,12.00
2022-12-23T00:27:26.116Z,14.30
2022-12-23T00:30:25.748Z,13.20
2022-12-23T00:33:08.209Z,12.50
2022-12-23T00:36:05.872Z,12.90
2022-12-23T00:39:06.488Z,10.60
2022-12-23T00:42:31.595Z,9.70
2022-12-23T00:45:26.772Z,12.60
2022-12-23T00:51:23.501Z,7.20
2022-12-23T00:54:08.333Z,8.60
2022-12-23T00:57:11.386Z,8.20
2022-12-23T00:59:51.229Z,8.20
2022-12-23T01:03:06.765Z,11.80
2022-12-23T01:05:57.274Z,9.60
2022-12-23T01:08:53.125Z,12.30
2022-12-23T01:11:43.986Z,9.00
2022-12-23T01:14:39.712Z,9.70
2022-12-23T01:17:20.559Z,11.10
2022-12-23T01:20:26.295Z,9.40
2022-12-23T01:23:31.470Z,9.80
2022-12-23T01:26:34.379Z,10.80
2022-12-23T01:29:29.724Z,7.00
2022-12-23T01:32:11.965Z,8.20
2022-12-23T01:35:11.027Z,9.50
2022-12-23T01:38:08.282Z,11.80
2022-12-23T01:40:54.253Z,9.90
2022-12-23T01:44:00.692Z,10.10
2022-12-23T01:46:49.421Z,8.80
2022-12-23T01:49:57.439Z,9.10
2022-12-23T01:53:08.228Z,9.50
2022-12-23T01:56:28.566Z,8.20
2022-12-23T01:59:43.828Z,9.50
2022-12-23T02:02:45.650Z,10.60
2022-12-23T02:05:40.870Z,9.40
2022-12-23T02:08:44.820Z,9.70
2022-12-23T02:12:01.671Z,10.50
2022-12-23T02:15:59.845Z,10.30
2022-12-23T02:19:19.111Z,10.50
2022-12-23T02:22:41.769Z,7.60
2022-12-23T02:26:18.447Z,10.10
2022-12-23T02:29:44.770Z,7.90
2022-12-23T02:33:13.665Z,9.30
2022-12-23T02:36:10.588Z,10.60
2022-12-23T02:39:24.425Z,9.00
2022-12-23T02:43:04.173Z,7.40
2022-12-23T02:46:09.574Z,8.80
2022-12-23T02:49:39.639Z,10.00
2022-12-23T02:52:46.578Z,11.10
2022-12-23T02:55:50.124Z,9.10
2022-12-23T02:58:48.123Z,8.40
2022-12-23T03:01:45.210Z,9.40
2022-12-23T03:04:40.103Z,6.30
2022-12-23T03:07:41.126Z,8.90
2022-12-23T03:10:42.106Z,9.10
2022-12-23T03:13:40.132Z,8.00
2022-12-23T03:16:58.140Z,8.40
2022-12-23T03:20:16.128Z,7.30
2022-12-23T03:23:20.114Z,8.70
2022-12-23T03:26:25.127Z,8.40
2022-12-23T03:29:27.106Z,8.90
2022-12-23T03:32:22.112Z,9.00
2022-12-23T03:35:18.099Z,9.50
2022-12-23T03:38:14.116Z,8.30
2022-12-23T03:41:07.254Z,8.10
2022-12-23T03:43:55.261Z,8.70
2022-12-23T03:46:50.205Z,7.90
2022-12-23T03:49:36.240Z,9.70
2022-12-23T03:55:25.115Z,7.70
2022-12-23T03:58:16.098Z,7.70
2022-12-23T04:00:55.243Z,8.90
2022-12-23T04:03:56.231Z,9.80
2022-12-23T04:07:01.113Z,8.20
2022-12-23T04:09:56.101Z,8.70
2022-12-23T04:12:45.129Z,7.10
2022-12-23T04:15:20.468Z,8.50
2022-12-23T04:18:08.081Z,8.60
2022-12-23T04:20:43.487Z,9.00
2022-12-23T04:23:31.099Z,8.50
2022-12-23T04:26:26.103Z,7.70
2022-12-23T04:29:14.107Z,7.60
2022-12-23T04:31:48.304Z,7.80
2022-12-23T04:34:36.112Z,8.10
2022-12-23T04:37:11.268Z,9.40
2022-12-23T04:39:59.146Z,9.10
2022-12-23T04:42:41.091Z,10.30
2022-12-23T04:45:36.110Z,9.30
2022-12-23T04:48:25.095Z,9.80
2022-12-23T04:50:59.244Z,9.30
2022-12-23T04:53:47.105Z,8.40
2022-12-23T04:56:42.283Z,8.30
2022-12-23T04:59:30.122Z,10.30
2022-12-23T05:02:25.232Z,9.10
2022-12-23T05:05:13.114Z,8.20
2022-12-23T05:07:55.108Z,8.40
2022-12-23T05:10:50.098Z,8.90
2022-12-23T05:13:45.123Z,9.50
2022-12-23T05:16:41.196Z,8.80
2022-12-23T05:19:36.104Z,10.00
2022-12-23T05:22:31.084Z,9.20
2022-12-23T05:25:26.104Z,10.20
2022-12-23T05:28:21.085Z,9.40
2022-12-23T05:31:11.147Z,10.90
2022-12-23T05:33:53.207Z,9.00
2022-12-23T05:36:48.095Z,6.40
2022-12-23T05:39:36.084Z,6.50
2022-12-23T05:42:11.212Z,8.00
2022-12-23T05:44:59.095Z,8.90
2022-12-23T05:47:33.215Z,8.10
2022-12-23T05:50:22.312Z,6.80
2022-12-23T05:52:58.131Z,7.00
2022-12-23T05:55:46.079Z,6.20
2022-12-23T05:58:21.447Z,7.50
2022-12-23T06:01:10.220Z,8.40
2022-12-23T06:03:45.334Z,9.60
2022-12-23T06:06:33.101Z,8.50
2022-12-23T06:09:08.237Z,7.90
2022-12-23T06:11:56.102Z,8.10
2022-12-23T06:14:38.075Z,8.00
2022-12-23T06:17:19.584Z,6.30
2022-12-23T06:20:07.082Z,7.40
2022-12-23T06:22:48.104Z,6.10
2022-12-23T06:25:43.078Z,8.50
2022-12-23T06:28:31.103Z,6.30
2022-12-23T06:31:06.219Z,7.90
2022-12-23T06:33:54.089Z,7.70
2022-12-23T06:36:29.298Z,7.50
2022-12-23T06:39:17.075Z,5.80
2022-12-23T06:41:58.213Z,9.40
2022-12-23T06:44:53.107Z,9.10
2022-12-23T06:47:48.100Z,6.90
2022-12-23T06:50:43.110Z,8.80
2022-12-23T06:53:31.145Z,7.00
2022-12-23T06:56:17.083Z,7.50
2022-12-23T06:59:12.240Z,8.30
2022-12-23T07:02:07.254Z,10.80
2022-12-23T07:04:56.300Z,8.10
2022-12-23T07:07:52.083Z,10.20
2022-12-23T07:10:41.088Z,9.40
2022-12-23T07:13:23.084Z,9.30
2022-12-23T07:16:22.121Z,12.40
2022-12-23T07:19:10.062Z,10.50
2022-12-23T07:21:44.215Z,10.50
2022-12-23T07:24:32.068Z,12.80
2022-12-23T07:27:06.433Z,12.10
2022-12-23T07:29:54.070Z,10.40
2022-12-23T07:32:29.248Z,10.80
2022-12-23T07:35:17.099Z,9.90
2022-12-23T07:37:59.183Z,12.70
2022-12-23T07:40:54.083Z,11.90
2022-12-23T07:43:49.092Z,11.80
2022-12-23T07:46:44.304Z,10.10
2022-12-23T07:49:39.063Z,9.90
2022-12-23T07:52:27.064Z,12.40
2022-12-23T07:55:22.064Z,11.50
2022-12-23T07:58:17.057Z,10.30
2022-12-23T08:01:10.137Z,11.30
2022-12-23T08:03:45.244Z,14.50
2022-12-23T08:06:40.061Z,12.40
2022-12-23T08:09:35.062Z,12.60
2022-12-23T08:12:23.161Z,11.10
2022-12-23T08:14:58.197Z,12.90
2022-12-23T08:17:46.061Z,12.10
2022-12-23T08:20:21.281Z,8.60
2022-12-23T08:23:09.107Z,14.10
2022-12-23T08:25:51.075Z,12.50
2022-12-23T08:28:47.132Z,13.10
2022-12-23T08:31:44.044Z,14.60
2022-12-23T08:34:39.084Z,14.40
2022-12-23T08:37:34.051Z,15.00
2022-12-23T08:40:29.057Z,16.10
2022-12-23T08:43:24.097Z,17.20
2022-12-23T08:46:20.119Z,13.90
2022-12-23T08:49:15.077Z,18.40
2022-12-23T08:52:03.849Z,17.00
2022-12-23T08:54:52.056Z,19.30
2022-12-23T08:57:27.207Z,20.40
2022-12-23T09:00:16.063Z,20.90
2022-12-23T09:02:58.170Z,23.10
2022-12-23T09:05:55.211Z,20.10
2022-12-23T09:08:36.797Z,16.40
2022-12-23T09:11:28.058Z,17.90
2022-12-23T09:14:10.077Z,12.90
2022-12-23T09:17:05.056Z,15.90
2022-12-23T09:19:53.489Z,19.00
2022-12-23T09:22:28.179Z,15.20
2022-12-23T09:25:18.116Z,15.50
2022-12-23T09:27:53.185Z,16.70
2022-12-23T09:30:41.089Z,15.70
2022-12-23T09:33:23.088Z,18.10
2022-12-23T09:36:19.050Z,16.80
2022-12-23T09:39:14.123Z,18.90
2022-12-23T09:42:21.093Z,16.70
2022-12-23T09:45:16.100Z,15.90
2022-12-23T09:48:11.099Z,17.80
2022-12-23T09:51:06.100Z,17.70
2022-12-23T09:54:02.035Z,19.10
2022-12-23T09:57:05.197Z,17.20
2022-12-23T09:59:59.065Z,15.40
2022-12-23T10:02:52.410Z,16.50
2022-12-23T10:06:06.074Z,13.50
2022-12-23T10:08:50.244Z,13.20
2022-12-23T10:11:47.092Z,14.30
2022-12-23T10:14:26.223Z,15.20
2022-12-23T10:17:20.071Z,14.80
2022-12-23T10:19:56.174Z,13.40
2022-12-23T10:22:47.059Z,11.90
2022-12-23T10:25:40.162Z,12.90
2022-12-23T10:28:35.030Z,14.90
2022-12-23T10:31:41.534Z,15.90
2022-12-23T10:35:04.238Z,15.30
2022-12-23T10:38:15.113Z,15.00
2022-12-23T10:41:07.113Z,16.70
2022-12-23T10:44:28.161Z,18.50
2022-12-23T10:47:38.117Z,17.50
2022-12-23T10:50:53.081Z,19.80
2022-12-23T10:53:58.120Z,18.70
2022-12-23T10:56:46.158Z,18.60
2022-12-23T10:59:45.034Z,19.10
2022-12-23T11:02:58.204Z,17.20
2022-12-23T11:05:46.945Z,18.50
2022-12-23T11:08:30.160Z,17.10
2022-12-23T11:11:25.034Z,17.00
2022-12-23T11:14:20.033Z,13.50
2022-12-23T11:17:15.066Z,17.50
2022-12-23T11:20:22.056Z,15.70
2022-12-23T11:23:00.450Z,16.40
2022-12-23T11:25:51.177Z,14.90
2022-12-23T11:28:34.079Z,16.20
2022-12-23T11:31:29.088Z,15.10
2022-12-23T11:34:47.162Z,16.10
2022-12-23T11:37:52.027Z,13.10
2022-12-23T11:40:53.171Z,14.50
2022-12-23T11:43:48.096Z,15.80
2022-12-23T11:46:45.079Z,17.10
2022-12-23T11:49:42.309Z,16.80
2022-12-23T11:52:45.032Z,17.50
2022-12-23T11:55:43.183Z,17.20
2022-12-23T11:58:38.031Z,17.20
2022-12-23T12:01:35.026Z,17.40
2022-12-23T12:04:30.021Z,20.40
2022-12-23T12:07:07.610Z,16.40
2022-12-23T12:10:02.137Z,22.00
2022-12-23T12:12:57.016Z,17.80
2022-12-23T12:15:48.037Z,18.60
2022-12-23T12:18:43.021Z,22.30
2022-12-23T12:21:42.111Z,17.20
2022-12-23T12:24:41.106Z,18.00
2022-12-23T12:27:37.051Z,18.00
2022-12-23T12:30:14.239Z,14.40
2022-12-23T12:33:16.292Z,18.00
2022-12-23T12:36:33.574Z,18.30
2022-12-23T12:39:17.259Z,17.70
2022-12-23T12:42:21.651Z,18.00
2022-12-23T12:45:58.087Z,18.30
2022-12-23T12:49:10.023Z,17.80
2022-12-23T12:52:28.450Z,19.30
2022-12-23T12:55:32.041Z,18.70
2022-12-23T12:58:33.251Z,14.20
2022-12-23T13:01:24.066Z,16.00
2022-12-23T13:04:04.774Z,16.20
2022-12-23T13:07:27.085Z,23.20
2022-12-23T13:10:28.159Z,17.90
2022-12-23T13:13:52.081Z,24.00
2022-12-23T13:17:06.050Z,18.30
2022-12-23T13:20:03.177Z,24.30
2022-12-23T13:22:53.645Z,27.40
2022-12-23T13:25:33.199Z,25.20
2022-12-23T13:28:54.046Z,16.80
2022-12-23T13:32:04.012Z,15.20
2022-12-23T13:35:27.083Z,13.60
2022-12-23T13:38:30.049Z,13.30
2022-12-23T13:41:37.180Z,13.70
2022-12-23T13:44:26.060Z,16.50
2022-12-23T13:47:29.215Z,16.50
2022-12-23T13:50:22.050Z,15.60
2022-12-23T13:53:02.683Z,14.60
2022-12-23T13:56:19.319Z,16.40
2022-12-23T13:59:07.020Z,16.00
2022-12-23T14:01:47.482Z,15.70
2022-12-23T14:04:44.024Z,11.60
2022-12-23T14:07:28.341Z,17.70
2022-12-23T14:10:28.198Z,17.40
2022-12-23T14:13:25.357Z,15.90
2022-12-23T14:16:38.231Z,17.00
2022-12-23T14:19:22.923Z,20.20
2022-12-23T14:22:21.027Z,21.90
2022-12-23T14:25:17.178Z,19.10
2022-12-23T14:28:30.008Z,23.50
2022-12-23T14:31:06.102Z,26.00
2022-12-23T14:34:03.367Z,19.00
2022-12-23T14:37:22.293Z,25.80
2022-12-23T14:40:11.186Z,23.30
2022-12-23T14:43:46.023Z,23.60
2022-12-23T14:46:50.259Z,24.40
2022-12-23T14:49:51.027Z,23.50
2022-12-23T14:52:49.017Z,23.00
2022-12-23T14:55:44.084Z,21.00
2022-12-23T14:58:42.998Z,17.50
2022-12-23T15:01:55.037Z,21.10
2022-12-23T15:04:56.020Z,20.70
2022-12-23T15:07:54.160Z,18.30
2022-12-23T15:10:51.199Z,22.00
2022-12-23T15:13:47.189Z,24.60
2022-12-23T15:16:53.051Z,22.50
2022-12-23T15:19:48.195Z,23.70
2022-12-23T15:22:47.014Z,26.40
2022-12-23T15:25:37.982Z,26.30
2022-12-23T15:28:35.998Z,26.40
2022-12-23T15:31:43.063Z,23.90
2022-12-23T15:34:38.088Z,20.40
2022-12-23T15:37:25.890Z,21.80
2022-12-23T15:40:36.182Z,18.50
2022-12-23T15:46:13.125Z,21.90
2022-12-23T15:49:01.203Z,18.20
2022-12-23T15:55:23.203Z,27.20
2022-12-23T15:58:06.192Z,23.90
2022-12-23T16:00:58.978Z,21.30
2022-12-23T16:04:02.162Z,23.10
2022-12-23T16:07:02.974Z,19.90
2022-12-23T16:09:50.992Z,19.90
2022-12-23T16:12:32.221Z,21.00
2022-12-23T16:15:42.190Z,20.10
2022-12-23T16:18:46.730Z,17.30
2022-12-23T16:21:44.995Z,16.10
2022-12-23T16:24:32.993Z,20.40
2022-12-23T16:27:08.195Z,18.70
2022-12-23T16:29:56.206Z,19.20
2022-12-23T16:32:31.455Z,15.60
2022-12-23T16:35:20.188Z,15.40
2022-12-23T16:37:55.304Z,19.80
2022-12-23T16:40:43.099Z,19.50
2022-12-23T16:43:39.027Z,21.20
2022-12-23T16:46:28.996Z,21.30
2022-12-23T16:49:06.169Z,19.90
2022-12-23T16:51:54.177Z,15.90
2022-12-23T16:54:48.973Z,18.10
2022-12-23T16:57:44.030Z,17.30
2022-12-23T17:00:39.210Z,15.80
2022-12-23T17:03:34.981Z,14.10
2022-12-23T17:06:32.986Z,16.10
2022-12-23T17:09:22.201Z,15.60
2022-12-23T17:12:06.975Z,17.90
2022-12-23T17:15:01.982Z,18.20
2022-12-23T17:17:50.004Z,13.70
2022-12-23T17:20:25.211Z,14.60
2022-12-23T17:23:20.167Z,17.50
2022-12-23T17:26:16.318Z,18.50
2022-12-23T17:29:03.970Z,18.80
2022-12-23T17:31:40.198Z,20.90
2022-12-23T17:34:29.981Z,18.20
2022-12-23T17:37:12.171Z,16.70
2022-12-23T17:40:07.115Z,12.60
2022-12-23T17:43:01.972Z,15.00
2022-12-23T17:45:51.019Z,15.20
2022-12-23T17:48:31.329Z,15.50
2022-12-23T17:51:25.969Z,21.00
2022-12-23T17:54:23.809Z,20.90
2022-12-23T17:57:33.462Z,17.40
2022-12-23T18:00:34.685Z,17.30
2022-12-23T18:03:39.031Z,18.00
2022-12-23T18:06:39.051Z,18.40
2022-12-23T18:09:27.987Z,18.80
2022-12-23T18:12:10.045Z,18.70
2022-12-23T18:15:05.015Z,17.70
2022-12-23T18:18:00.120Z,18.60
2022-12-23T18:20:56.972Z,16.30
2022-12-23T18:23:46.933Z,20.40
2022-12-23T18:26:41.974Z,17.00
2022-12-23T18:29:39.974Z,16.50
2022-12-23T18:32:41.106Z,14.80
2022-12-23T18:35:41.171Z,15.50
2022-12-23T18:38:36.975Z,14.20
2022-12-23T18:41:32.956Z,19.80
2022-12-23T18:44:34.977Z,16.00
2022-12-23T18:47:30.981Z,14.10
2022-12-23T18:50:27.036Z,13.80
2022-12-23T18:53:25.584Z,14.80
2022-12-23T18:56:03.384Z,13.50
2022-12-23T18:58:52.001Z,12.80
2022-12-23T19:01:27.274Z,17.10
2022-12-23T19:04:16.420Z,16.90
2022-12-23T19:06:55.224Z,20.80
2022-12-23T19:09:42.960Z,17.80
2022-12-23T19:12:22.573Z,19.90
2022-12-23T19:15:15.061Z,20.80
2022-12-23T19:18:10.498Z,14.30
2022-12-23T19:21:07.155Z,24.00
2022-12-23T19:24:01.986Z,25.60
2022-12-23T19:26:56.987Z,25.70
2022-12-23T19:29:44.990Z,23.40
2022-12-23T19:32:39.959Z,20.70
2022-12-23T19:35:35.939Z,20.10
2022-12-23T19:38:24.072Z,31.20
2022-12-23T19:41:08.196Z,31.80
2022-12-23T19:43:56.960Z,26.70
2022-12-23T19:46:32.141Z,29.40
2022-12-23T19:49:27.942Z,18.50
2022-12-23T19:52:17.210Z,18.10
2022-12-23T19:55:10.973Z,26.10
2022-12-23T19:57:46.211Z,21.00
2022-12-23T20:00:35.031Z,19.20
2022-12-23T20:03:10.915Z,20.60
2022-12-23T20:05:58.992Z,23.80
2022-12-23T20:08:42.009Z,22.80
2022-12-23T20:11:39.957Z,22.10
2022-12-23T20:14:34.029Z,27.20
2022-12-23T20:17:30.538Z,27.20
2022-12-23T20:20:18.944Z,17.30
2022-12-23T20:22:54.143Z,25.50
2022-12-23T20:25:41.974Z,27.10
2022-12-23T20:28:17.331Z,23.40
2022-12-23T20:31:07.980Z,24.00
2022-12-23T20:33:44.218Z,21.10
2022-12-23T20:36:34.994Z,27.60
2022-12-23T20:39:11.700Z,30.20
2022-12-23T20:42:00.104Z,32.00
2022-12-23T20:44:37.536Z,34.50
2022-12-23T20:47:26.066Z,30.30
2022-12-23T20:50:08.964Z,29.60
2022-12-23T20:53:03.921Z,23.20
2022-12-23T20:55:51.943Z,25.00
2022-12-23T20:59:02.387Z,29.30
2022-12-23T21:02:00.060Z,33.50
2022-12-23T21:04:55.996Z,30.70
2022-12-23T21:07:52.155Z,28.60
2022-12-23T21:10:47.149Z,31.30
2022-12-23T21:13:43.941Z,29.20
2022-12-23T21:16:39.047Z,26.40
2022-12-23T21:19:31.008Z,32.80
2022-12-23T21:22:06.900Z,32.10
2022-12-23T21:24:55.995Z,35.40
2022-12-23T21:27:31.150Z,29.20
2022-12-23T21:30:19.023Z,35.50
2022-12-23T21:32:54.171Z,42.20
2022-12-23T21:35:42.033Z,37.40
2022-12-23T21:38:19.080Z,34.20
2022-12-23T21:41:11.936Z,34.20
2022-12-23T21:43:47.100Z,32.70
2022-12-23T21:46:38.928Z,31.00
2022-12-23T21:49:14.043Z,27.80
2022-12-23T21:52:01.957Z,31.80
2022-12-23T21:55:02.026Z,31.30
2022-12-23T21:57:58.051Z,30.30
2022-12-23T22:00:54.157Z,26.20
2022-12-23T22:03:50.920Z,26.70
2022-12-23T22:06:44.525Z,28.60
2022-12-23T22:09:40.003Z,27.70
2022-12-23T22:12:35.934Z,26.90
2022-12-23T22:15:33.117Z,29.30
2022-12-23T22:18:22.912Z,25.10
2022-12-23T22:20:58.428Z,28.40
2022-12-23T22:23:54.581Z,25.60
2022-12-23T22:26:50.938Z,25.50
2022-12-23T22:29:47.924Z,27.70
2022-12-23T22:32:42.171Z,32.00
2022-12-23T22:35:34.956Z,29.90
2022-12-23T22:38:17.966Z,23.90
2022-12-23T22:41:14.758Z,18.70
2022-12-23T22:44:06.386Z,27.70
2022-12-23T22:46:49.261Z,29.40
2022-12-23T22:49:46.217Z,32.10
2022-12-23T22:52:35.221Z,42.00
2022-12-23T22:55:21.041Z,36.50
2022-12-23T22:58:16.073Z,37.00
2022-12-23T23:01:11.001Z,30.10
2022-12-23T23:04:03.919Z,30.40
2022-12-23T23:06:58.902Z,22.70
2022-12-23T23:09:46.895Z,23.10
2022-12-23T23:12:21.204Z,19.30
2022-12-23T23:15:09.903Z,20.10
2022-12-23T23:17:45.044Z,20.60
2022-12-23T23:20:35.186Z,23.40
2022-12-23T23:23:11.052Z,22.30
2022-12-23T23:25:58.915Z,24.20
2022-12-23T23:28:40.911Z,26.60
2022-12-23T23:31:43.308Z,27.50
2022-12-23T23:34:31.908Z,19.90
2022-12-23T23:37:07.093Z,20.20
2022-12-23T23:39:56.499Z,19.20
2022-12-23T23:42:51.906Z,21.30
2022-12-23T23:45:48.031Z,20.00
2022-12-23T23:48:43.892Z,18.20
2022-12-23T23:51:31.910Z,18.50
2022-12-23T23:54:07.032Z,16.20
2022-12-23T23:56:54.941Z,18.00
2022-12-23T23:59:49.901Z,19.20
